Time;durP1;ratioP1;P1;durP2;ratioP2;P2;SDS_P1;SDS_P2;PMS_P1;PMS_P2;Temp;Humidity;BMP_temperature;BMP_pressure;BME280_temperature;BME280_humidity;BME280_pressure;Samples;Min_cycle;Max_cycle;Signal;HPM_P1;HPM_P2
2024/02/07 00:00:22;;;;;;;7.90;3.78;;;10.00;99.90;;;;;;5025066;28;20190;-88
2024/02/07 00:02:48;;;;;;;12.63;4.13;;;9.90;99.90;;;;;;5052598;28;20617;-87
2024/02/07 00:05:13;;;;;;;9.45;4.15;;;9.90;99.90;;;;;;5040145;28;20513;-88
2024/02/07 00:07:40;;;;;;;14.38;4.90;;;9.90;99.90;;;;;;5049982;28;20178;-90
2024/02/07 00:10:06;;;;;;;11.32;4.63;;;9.80;99.90;;;;;;5018941;28;20189;-87
2024/02/07 00:12:32;;;;;;;9.68;4.53;;;9.80;99.90;;;;;;5031392;28;20182;-88
2024/02/07 00:14:57;;;;;;;9.70;4.20;;;9.80;99.90;;;;;;5040553;28;20292;-94
2024/02/07 00:17:24;;;;;;;10.95;4.80;;;9.80;99.90;;;;;;5031838;28;20182;-87
2024/02/07 00:19:50;;;;;;;11.70;4.43;;;9.80;99.90;;;;;;5031730;28;20190;-89
2024/02/07 00:22:16;;;;;;;9.48;4.10;;;9.90;99.90;;;;;;5031817;28;20505;-88
2024/02/07 00:24:42;;;;;;;8.63;3.67;;;9.90;99.90;;;;;;5040430;28;20185;-88
2024/02/07 00:27:09;;;;;;;8.80;2.58;;;10.00;99.90;;;;;;5039852;28;20598;-92
2024/02/07 00:29:36;;;;;;;3.58;0.60;;;9.90;99.90;;;;;;5015437;28;20185;-91
2024/02/07 00:32:01;;;;;;;0.85;0.63;;;9.40;99.90;;;;;;5040209;28;20182;-89
2024/02/07 00:34:28;;;;;;;1.13;0.47;;;9.10;99.90;;;;;;5031579;28;20271;-88
2024/02/07 00:36:54;;;;;;;0.60;0.50;;;8.70;99.90;;;;;;5036474;28;20324;-89
2024/02/07 00:39:19;;;;;;;0.80;0.40;;;8.50;99.90;;;;;;5051673;28;20224;-88
2024/02/07 00:41:45;;;;;;;0.73;0.50;;;8.40;99.90;;;;;;5005047;28;20191;-89
2024/02/07 00:44:12;;;;;;;1.90;0.50;;;8.30;99.90;;;;;;5036383;28;20645;-89
2024/02/07 00:46:39;;;;;;;0.67;0.60;;;8.30;99.90;;;;;;5043677;28;20182;-88
2024/02/07 00:49:05;;;;;;;0.80;0.53;;;8.20;99.90;;;;;;5024945;28;20191;-89
2024/02/07 00:51:31;;;;;;;0.50;0.40;;;8.20;99.90;;;;;;5025129;28;20568;-88
2024/02/07 00:53:57;;;;;;;0.57;0.50;;;8.20;99.90;;;;;;5044488;28;20233;-89
2024/02/07 00:56:23;;;;;;;0.60;0.57;;;8.00;99.90;;;;;;5037075;28;20202;-89
2024/02/07 00:58:50;;;;;;;0.70;0.50;;;7.80;99.90;;;;;;5034799;28;20182;-89
2024/02/07 01:01:16;;;;;;;2.73;0.60;;;7.80;99.90;;;;;;5045903;28;20193;-88
2024/02/07 01:03:42;;;;;;;1.10;0.60;;;7.70;99.90;;;;;;5036231;28;20194;-89
2024/02/07 01:06:08;;;;;;;1.90;0.60;;;7.60;99.90;;;;;;5039004;28;20529;-88
2024/02/07 01:08:35;;;;;;;3.07;0.50;;;7.40;99.90;;;;;;5034982;28;20190;-87
2024/02/07 01:11:00;;;;;;;3.23;0.50;;;7.20;99.90;;;;;;5031345;28;20212;-90
2024/02/07 01:13:26;;;;;;;1.83;0.70;;;7.00;99.90;;;;;;5026162;28;20189;-87
2024/02/07 01:15:52;;;;;;;2.53;0.33;;;6.80;99.90;;;;;;5044130;28;20194;-90
2024/02/07 01:18:29;;;;;;;1.23;0.40;;;6.60;99.90;;;;;;5043303;28;20197;-90
2024/02/07 01:20:55;;;;;;;4.60;0.70;;;6.40;99.90;;;;;;5019754;28;20186;-88
2024/02/07 01:23:21;;;;;;;2.73;0.53;;;6.30;99.90;;;;;;5051156;28;20602;-87
2024/02/07 01:25:47;;;;;;;3.60;0.77;;;6.20;99.90;;;;;;5027206;28;20765;-88
2024/02/07 01:28:16;;;;;;;3.67;0.80;;;6.10;99.90;;;;;;5050792;28;20190;-91
2024/02/07 01:30:43;;;;;;;2.87;0.53;;;6.10;99.90;;;;;;5012896;28;20622;-88
2024/02/07 01:33:10;;;;;;;2.07;0.60;;;6.00;99.90;;;;;;5043893;28;20197;-90
2024/02/07 01:35:35;;;;;;;4.43;0.80;;;5.90;99.90;;;;;;5036483;28;20198;-91
2024/02/07 01:38:17;;;;;;;1.33;0.43;;;5.80;99.90;;;;;;5031288;28;20183;-88
2024/02/07 01:40:48;;;;;;;4.33;0.90;;;5.90;99.90;;;;;;5050243;28;20186;-90
2024/02/07 01:43:15;;;;;;;2.63;0.70;;;5.80;99.90;;;;;;5043738;28;20650;-89
2024/02/07 01:45:41;;;;;;;1.63;0.70;;;5.90;99.90;;;;;;5029660;28;20206;-89
2024/02/07 01:48:08;;;;;;;1.90;0.60;;;5.80;99.90;;;;;;5040320;28;20220;-89
2024/02/07 01:50:39;;;;;;;2.97;0.80;;;5.80;99.90;;;;;;5047771;28;20236;-89
2024/02/07 01:53:07;;;;;;;2.93;0.80;;;5.70;99.90;;;;;;5050188;28;20629;-88
2024/02/07 01:55:35;;;;;;;2.07;0.57;;;5.70;99.90;;;;;;5043825;28;20234;-89
2024/02/07 01:58:08;;;;;;;3.13;0.80;;;5.70;99.90;;;;;;5046721;28;20193;-88
2024/02/07 02:00:36;;;;;;;3.40;0.57;;;5.70;99.90;;;;;;5045660;28;20193;-89
2024/02/07 02:03:03;;;;;;;4.60;0.97;;;5.60;99.90;;;;;;5032148;28;20195;-88
2024/02/07 02:05:29;;;;;;;5.50;0.83;;;5.70;99.90;;;;;;5055951;28;20181;-88
2024/02/07 02:07:59;;;;;;;2.57;0.53;;;5.60;99.90;;;;;;5030359;28;20495;-89
2024/02/07 02:10:25;;;;;;;2.47;0.60;;;5.60;99.90;;;;;;5030949;28;20209;-89
2024/02/07 02:12:51;;;;;;;3.80;0.63;;;5.60;99.90;;;;;;5037845;28;20625;-88
2024/02/07 02:15:17;;;;;;;3.97;0.80;;;5.60;99.90;;;;;;5042493;28;20251;-88
2024/02/07 02:17:45;;;;;;;3.07;0.83;;;5.70;99.90;;;;;;5045563;28;20201;-89
2024/02/07 02:20:11;;;;;;;3.73;0.97;;;5.70;99.90;;;;;;5042855;28;20209;-89
2024/02/07 02:23:04;;;;;;;1.93;0.60;;;5.70;99.90;;;;;;5034745;28;20245;-88
2024/02/07 02:26:00;;;;;;;2.53;0.60;;;5.70;99.90;;;;;;5043838;28;20241;-88
2024/02/07 02:28:44;;;;;;;5.07;0.87;;;5.60;99.90;;;;;;5039897;28;20249;-88
2024/02/07 02:31:14;;;;;;;3.63;0.87;;;5.50;99.90;;;;;;5033307;28;20212;-88
2024/02/07 02:33:41;;;;;;;1.73;0.43;;;5.40;99.90;;;;;;5028085;28;20726;-88
2024/02/07 02:36:08;;;;;;;3.63;0.60;;;5.30;99.90;;;;;;5042647;28;20282;-87
2024/02/07 02:38:38;;;;;;;2.37;0.53;;;5.20;99.90;;;;;;5042252;28;20185;-88
2024/02/07 02:41:07;;;;;;;3.17;0.77;;;5.10;99.90;;;;;;5031742;28;20192;-87
2024/02/07 02:43:32;;;;;;;2.43;0.70;;;5.00;99.90;;;;;;5028899;28;20212;-87
2024/02/07 02:45:58;;;;;;;3.43;0.50;;;5.00;99.90;;;;;;5042319;28;20190;-88
2024/02/07 02:48:27;;;;;;;3.80;0.50;;;4.90;99.90;;;;;;5042185;28;20194;-87
2024/02/07 02:50:54;;;;;;;2.13;0.50;;;4.90;99.90;;;;;;5025537;28;20244;-88
2024/02/07 02:53:19;;;;;;;0.73;0.40;;;4.80;99.90;;;;;;5041692;28;20190;-87
2024/02/07 02:55:46;;;;;;;2.50;0.50;;;4.70;99.90;;;;;;5041802;28;20197;-87
2024/02/07 02:58:13;;;;;;;3.67;0.70;;;4.60;99.90;;;;;;5042952;28;20182;-88
2024/02/07 03:00:38;;;;;;;2.17;0.33;;;4.60;99.90;;;;;;5044222;28;20197;-88
2024/02/07 03:03:04;;;;;;;5.03;0.40;;;4.40;99.90;;;;;;5036985;28;20186;-86
2024/02/07 03:10:38;;;;;;;4.53;0.50;;;4.20;99.90;;;;;;5043531;28;20284;-89
2024/02/07 03:13:04;;;;;;;1.93;0.47;;;4.30;99.90;;;;;;5041152;28;20185;-87
2024/02/07 03:15:32;;;;;;;2.03;0.40;;;4.30;99.90;;;;;;5036930;28;20226;-88
2024/02/07 03:17:57;;;;;;;3.77;0.83;;;4.30;99.90;;;;;;5033185;28;20190;-89
2024/02/07 03:20:23;;;;;;;2.80;0.50;;;4.30;99.90;;;;;;5032735;28;20232;-88
2024/02/07 03:22:51;;;;;;;1.47;0.70;;;4.30;99.90;;;;;;5041460;28;20193;-88
2024/02/07 03:25:17;;;;;;;2.60;0.60;;;4.30;99.90;;;;;;5041688;28;20222;-88
2024/02/07 03:27:44;;;;;;;2.47;0.50;;;4.30;99.90;;;;;;5044137;28;20244;-87
2024/02/07 03:30:12;;;;;;;3.20;0.63;;;4.20;99.90;;;;;;5034868;28;20186;-87
2024/02/07 03:32:38;;;;;;;4.50;0.80;;;4.20;99.90;;;;;;5030480;28;20273;-88
2024/02/07 03:35:04;;;;;;;4.20;0.90;;;4.20;99.90;;;;;;5037584;28;20240;-87
2024/02/07 03:37:30;;;;;;;6.80;0.90;;;4.10;99.90;;;;;;5028782;28;20187;-87
2024/02/07 03:39:58;;;;;;;2.77;0.50;;;4.10;99.90;;;;;;5037338;28;20524;-88
2024/02/07 03:42:24;;;;;;;1.80;0.53;;;4.00;99.90;;;;;;5025751;28;20186;-87
2024/02/07 03:44:57;;;;;;;6.13;0.90;;;4.00;99.90;;;;;;5029029;28;20192;-87
2024/02/07 03:47:24;;;;;;;4.07;0.73;;;4.00;99.90;;;;;;5044584;28;20284;-87
2024/02/07 03:49:57;;;;;;;3.60;0.93;;;3.90;99.90;;;;;;5031657;28;20243;-88
2024/02/07 03:52:23;;;;;;;5.07;0.90;;;3.90;99.90;;;;;;5029074;28;20648;-87
2024/02/07 03:54:51;;;;;;;4.20;0.63;;;3.90;99.90;;;;;;5053922;28;20214;-88
2024/02/07 03:57:20;;;;;;;2.50;0.50;;;4.00;99.90;;;;;;5038387;28;20383;-88
2024/02/07 03:59:54;;;;;;;4.67;0.90;;;4.00;99.90;;;;;;5047292;28;20281;-88
2024/02/07 04:02:23;;;;;;;5.00;1.00;;;4.00;99.90;;;;;;5049901;28;20191;-88
2024/02/07 04:04:53;;;;;;;3.80;0.90;;;4.00;99.90;;;;;;5037037;28;20217;-88
2024/02/07 04:07:20;;;;;;;4.37;1.00;;;4.00;99.90;;;;;;5053723;28;20185;-87
2024/02/07 04:09:47;;;;;;;4.20;0.97;;;4.00;99.90;;;;;;5045310;28;20552;-87
2024/02/07 05:17:23;;;;;;;3.63;1.17;;;4.00;99.90;;;;;;5042522;28;20258;-88
2024/02/07 05:19:50;;;;;;;9.77;1.20;;;4.00;99.90;;;;;;5035452;28;20193;-88
2024/02/07 05:22:16;;;;;;;5.57;1.07;;;4.00;99.90;;;;;;5044686;28;20234;-88
2024/02/07 05:24:43;;;;;;;4.63;1.27;;;4.00;99.90;;;;;;5043268;28;20284;-85
2024/02/07 05:27:12;;;;;;;7.27;1.17;;;4.00;99.90;;;;;;5043732;28;20190;-87
2024/02/07 05:29:39;;;;;;;6.80;1.97;;;3.90;99.90;;;;;;5044038;28;20259;-87
2024/02/07 05:32:06;;;;;;;6.27;1.17;;;4.00;99.90;;;;;;5045986;28;20193;-88
2024/02/07 05:34:33;;;;;;;9.93;1.20;;;4.00;99.90;;;;;;5043041;28;20251;-85
2024/02/07 05:36:59;;;;;;;10.47;1.60;;;4.00;99.90;;;;;;5043384;28;20199;-88
2024/02/07 05:39:36;;;;;;;3.90;1.00;;;4.00;99.90;;;;;;5042780;28;20497;-88
2024/02/07 05:42:02;;;;;;;3.63;0.93;;;4.00;99.90;;;;;;5024052;28;20189;-88
2024/02/07 05:44:28;;;;;;;7.20;1.30;;;4.00;99.90;;;;;;5047532;28;20608;-88
2024/02/07 05:46:54;;;;;;;8.50;1.27;;;4.00;99.90;;;;;;5013724;28;20193;-87
2024/02/07 05:49:21;;;;;;;4.73;1.37;;;4.00;99.90;;;;;;5030035;28;20666;-88
2024/02/07 05:51:58;;;;;;;9.03;1.30;;;4.00;99.90;;;;;;5013611;28;20241;-87
2024/02/07 05:54:27;;;;;;;11.67;1.33;;;4.00;99.90;;;;;;5022680;28;20218;-86
2024/02/07 05:56:53;;;;;;;8.07;1.87;;;4.00;99.90;;;;;;5038642;28;20205;-87
2024/02/07 05:59:22;;;;;;;8.10;1.27;;;4.00;99.90;;;;;;5034731;28;20621;-86
2024/02/07 06:01:48;;;;;;;6.87;1.33;;;4.00;99.90;;;;;;5043663;28;20230;-87
2024/02/07 06:04:14;;;;;;;6.80;1.00;;;4.00;99.90;;;;;;5034678;28;20267;-89
2024/02/07 06:06:42;;;;;;;7.33;1.27;;;4.00;99.90;;;;;;5033700;28;20493;-88
2024/02/07 06:09:08;;;;;;;7.53;1.30;;;4.00;99.90;;;;;;5032329;28;20294;-88
2024/02/07 06:11:41;;;;;;;9.73;1.10;;;4.00;99.90;;;;;;5033647;28;20201;-87
2024/02/07 06:14:15;;;;;;;6.27;1.07;;;4.10;99.90;;;;;;5042311;28;20558;-88
2024/02/07 06:16:41;;;;;;;5.90;1.30;;;4.10;99.90;;;;;;5037222;28;20624;-87
2024/02/07 06:19:09;;;;;;;6.87;1.40;;;4.00;99.90;;;;;;5016427;28;20447;-87
2024/02/07 06:21:37;;;;;;;9.97;1.40;;;4.00;99.90;;;;;;5034079;28;20193;-86
2024/02/07 06:24:03;;;;;;;5.20;1.40;;;4.00;99.90;;;;;;5038612;28;20601;-88
2024/02/07 06:26:28;;;;;;;7.60;1.07;;;4.00;99.90;;;;;;5029495;28;20241;-87
2024/02/07 06:28:54;;;;;;;5.33;1.03;;;4.00;99.90;;;;;;5031341;28;20244;-88
2024/02/07 06:31:22;;;;;;;5.03;1.47;;;4.10;99.90;;;;;;5038640;28;20218;-86
2024/02/07 06:33:47;;;;;;;6.77;1.23;;;4.10;99.90;;;;;;5037440;28;20229;-88
2024/02/07 06:36:13;;;;;;;10.17;1.60;;;4.10;99.90;;;;;;5031874;28;20186;-87
2024/02/07 06:38:39;;;;;;;9.77;1.70;;;4.10;99.90;;;;;;5039002;28;20225;-88
2024/02/07 06:41:07;;;;;;;8.90;1.30;;;4.10;99.90;;;;;;5029006;28;20681;-87
2024/02/07 06:43:32;;;;;;;13.20;2.30;;;4.10;99.90;;;;;;5030038;28;20217;-87
2024/02/07 06:46:01;;;;;;;12.70;2.00;;;4.20;99.90;;;;;;5037388;28;20556;-88
2024/02/07 06:48:27;;;;;;;6.93;1.77;;;4.20;99.90;;;;;;5031040;28;20178;-87
2024/02/07 06:50:56;;;;;;;9.93;1.70;;;4.10;99.90;;;;;;5036741;28;20613;-87
2024/02/07 06:53:21;;;;;;;9.30;2.20;;;4.10;99.90;;;;;;5030414;28;20233;-87
2024/02/07 06:55:47;;;;;;;12.80;2.10;;;4.10;99.90;;;;;;5042043;28;20226;-88
2024/02/07 06:58:13;;;;;;;6.80;1.50;;;4.20;99.90;;;;;;5040031;28;20188;-88
2024/02/07 07:00:39;;;;;;;8.20;1.50;;;4.20;99.90;;;;;;5027521;28;20179;-87
2024/02/07 07:03:04;;;;;;;18.07;2.60;;;4.20;99.90;;;;;;5030319;28;20191;-87
2024/02/07 07:05:30;;;;;;;10.67;2.47;;;4.20;99.90;;;;;;5010313;28;20209;-88
2024/02/07 07:07:56;;;;;;;12.77;2.33;;;4.20;99.90;;;;;;5033877;28;20261;-87
2024/02/07 07:10:22;;;;;;;9.50;1.97;;;4.10;99.90;;;;;;5034949;28;20180;-88
2024/02/07 07:12:47;;;;;;;10.47;1.50;;;4.10;99.90;;;;;;5033659;28;20239;-88
2024/02/07 07:15:13;;;;;;;7.70;1.80;;;4.10;99.90;;;;;;5033501;28;20676;-87
2024/02/07 07:17:39;;;;;;;7.87;1.93;;;4.10;99.90;;;;;;5033963;28;20570;-88
2024/02/07 07:20:06;;;;;;;8.00;1.80;;;4.20;99.90;;;;;;5033221;28;20190;-88
2024/02/07 07:22:32;;;;;;;14.03;2.27;;;4.20;99.90;;;;;;5041749;28;20178;-88
2024/02/07 07:24:58;;;;;;;10.60;2.00;;;4.20;99.90;;;;;;5009009;28;20201;-88
2024/02/07 07:27:24;;;;;;;9.60;2.17;;;4.30;99.90;;;;;;5041036;28;20194;-88
2024/02/07 07:29:49;;;;;;;12.37;2.03;;;4.20;99.90;;;;;;5025312;28;20229;-88
2024/02/07 07:32:15;;;;;;;10.57;1.50;;;4.20;99.90;;;;;;5033631;28;20232;-88
2024/02/07 07:34:41;;;;;;;11.70;1.83;;;4.20;99.90;;;;;;5043095;28;20301;-88
2024/02/07 07:37:07;;;;;;;16.17;2.57;;;4.30;99.90;;;;;;5031933;28;20521;-88
2024/02/07 07:39:33;;;;;;;13.73;2.73;;;4.30;99.90;;;;;;5049904;28;20193;-86
2024/02/07 07:42:05;;;;;;;13.47;2.43;;;4.30;99.90;;;;;;5038075;28;20178;-87
2024/02/07 07:44:31;;;;;;;12.03;2.60;;;4.30;99.90;;;;;;5020213;28;20201;-87
2024/02/07 07:46:57;;;;;;;11.10;3.13;;;4.40;99.90;;;;;;5017089;28;20186;-87
2024/02/07 07:49:23;;;;;;;11.77;2.40;;;4.40;99.90;;;;;;5049924;28;20262;-86
2024/02/07 07:51:48;;;;;;;13.83;3.20;;;4.40;99.90;;;;;;5043844;28;20198;-87
2024/02/07 07:54:14;;;;;;;15.07;2.93;;;4.50;99.90;;;;;;5028382;28;20643;-87
2024/02/07 07:56:40;;;;;;;11.83;2.80;;;4.50;99.90;;;;;;5012309;28;20194;-87
2024/02/07 07:59:06;;;;;;;15.07;2.93;;;4.50;99.90;;;;;;5036315;28;20263;-87
2024/02/07 08:01:34;;;;;;;10.90;2.70;;;4.50;99.90;;;;;;5020098;28;20182;-87
2024/02/07 08:04:00;;;;;;;9.23;2.20;;;4.50;99.90;;;;;;5033579;28;20194;-87
2024/02/07 08:06:26;;;;;;;6.83;1.83;;;4.60;99.90;;;;;;5033031;28;20178;-89
2024/02/07 08:08:52;;;;;;;11.97;2.07;;;4.60;99.90;;;;;;5039013;28;20194;-85
2024/02/07 08:11:18;;;;;;;17.20;2.47;;;4.60;99.90;;;;;;5029880;28;20617;-83
2024/02/07 08:13:44;;;;;;;7.40;1.83;;;4.60;99.90;;;;;;5043549;28;20186;-88
2024/02/07 08:16:10;;;;;;;10.67;1.73;;;4.50;99.90;;;;;;5028207;28;20185;-87
2024/02/07 08:18:35;;;;;;;13.87;2.23;;;4.60;99.90;;;;;;5045208;28;20177;-86
2024/02/07 08:21:02;;;;;;;12.20;2.30;;;4.60;99.90;;;;;;5044817;28;20511;-87
2024/02/07 08:23:29;;;;;;;14.10;2.60;;;4.60;99.90;;;;;;5019916;28;20266;-84
2024/02/07 08:25:54;;;;;;;23.00;3.57;;;4.60;99.90;;;;;;5012172;28;20326;-87
2024/02/07 08:28:20;;;;;;;13.50;2.63;;;4.60;99.90;;;;;;5013491;28;20265;-87
2024/02/07 08:30:46;;;;;;;12.90;2.20;;;4.60;99.90;;;;;;5014413;28;20684;-85
2024/02/07 08:33:11;;;;;;;18.57;2.70;;;4.70;99.90;;;;;;5029579;28;20184;-85
2024/02/07 08:35:38;;;;;;;13.13;2.70;;;4.70;99.90;;;;;;5013283;28;20215;-84
2024/02/07 08:38:04;;;;;;;17.73;2.27;;;4.70;99.90;;;;;;5015297;28;20191;-86
2024/02/07 08:40:31;;;;;;;11.97;2.43;;;4.70;99.90;;;;;;4996425;28;20179;-85
2024/02/07 08:42:57;;;;;;;11.10;2.40;;;4.70;99.90;;;;;;5012415;28;20275;-86
2024/02/07 08:45:22;;;;;;;15.70;2.10;;;4.60;99.90;;;;;;5015501;28;20274;-85
2024/02/07 08:47:48;;;;;;;13.03;2.80;;;4.70;99.90;;;;;;5000480;28;20182;-85
2024/02/07 08:50:15;;;;;;;10.53;2.10;;;4.70;99.90;;;;;;5015647;28;20656;-85
2024/02/07 08:52:42;;;;;;;12.20;2.00;;;4.70;99.90;;;;;;5015913;28;20214;-87
2024/02/07 08:55:09;;;;;;;10.80;2.13;;;4.80;99.90;;;;;;5011682;28;20258;-87
2024/02/07 08:57:39;;;;;;;12.20;2.33;;;4.80;99.90;;;;;;5029028;28;20253;-85
2024/02/07 09:00:07;;;;;;;18.43;3.53;;;4.80;99.90;;;;;;5015190;28;20222;-84
2024/02/07 09:02:32;;;;;;;20.40;3.10;;;4.80;99.90;;;;;;5016640;28;20183;-84
2024/02/07 09:05:04;;;;;;;13.50;2.43;;;4.90;99.90;;;;;;5004876;28;20183;-87
2024/02/07 09:07:31;;;;;;;11.20;2.50;;;4.90;99.90;;;;;;5027989;28;20191;-86
2024/02/07 09:09:56;;;;;;;14.90;2.30;;;4.90;99.90;;;;;;5010433;28;20196;-84
2024/02/07 09:12:22;;;;;;;15.20;2.70;;;5.00;99.90;;;;;;5015084;28;20179;-84
2024/02/07 09:14:48;;;;;;;13.03;2.43;;;5.00;99.90;;;;;;5013641;28;20666;-84
2024/02/07 09:17:13;;;;;;;12.87;3.10;;;5.00;99.90;;;;;;5031607;28;20222;-84
2024/02/07 09:19:39;;;;;;;9.00;2.10;;;5.10;99.90;;;;;;5016005;28;20191;-84
2024/02/07 09:22:05;;;;;;;17.37;2.77;;;5.10;99.90;;;;;;5015045;28;20191;-83
2024/02/07 09:24:30;;;;;;;18.53;2.93;;;5.00;99.90;;;;;;5015101;28;20190;-85
2024/02/07 09:26:58;;;;;;;12.70;3.33;;;5.10;99.90;;;;;;5021870;28;20602;-84
2024/02/07 09:29:24;;;;;;;16.73;3.00;;;5.00;99.90;;;;;;5028417;28;20219;-85
2024/02/07 09:31:50;;;;;;;17.07;3.00;;;5.00;99.90;;;;;;5040964;28;20277;-85
2024/02/07 09:34:16;;;;;;;13.43;3.03;;;5.00;99.90;;;;;;5036998;28;20310;-85
2024/02/07 09:36:42;;;;;;;15.93;2.93;;;5.00;99.90;;;;;;5022851;28;20186;-85
2024/02/07 09:39:08;;;;;;;13.03;2.80;;;5.10;99.90;;;;;;5030640;28;20203;-85
2024/02/07 09:41:34;;;;;;;9.50;2.50;;;5.00;99.90;;;;;;5015107;28;20255;-85
2024/02/07 09:44:04;;;;;;;17.80;2.87;;;5.10;99.90;;;;;;5015354;28;20175;-83
2024/02/07 09:46:37;;;;;;;16.63;3.17;;;5.30;99.90;;;;;;5015335;28;20688;-84
2024/02/07 09:49:07;;;;;;;14.80;2.70;;;5.40;99.90;;;;;;5015696;28;20250;-84
2024/02/07 09:51:33;;;;;;;12.20;2.10;;;5.40;99.90;;;;;;5014240;28;20218;-85
2024/02/07 09:54:01;;;;;;;15.67;2.30;;;5.50;99.90;;;;;;5027511;28;20215;-86
2024/02/07 09:56:30;;;;;;;20.87;4.03;;;5.50;99.90;;;;;;5026592;28;20198;-84
2024/02/07 09:58:56;;;;;;;18.60;2.57;;;5.50;99.90;;;;;;5038677;28;20187;-86
2024/02/07 10:01:22;;;;;;;14.27;2.37;;;5.60;99.90;;;;;;5015518;28;20220;-84
2024/02/07 10:03:51;;;;;;;13.63;2.90;;;5.60;99.90;;;;;;5013949;28;20191;-85
2024/02/07 10:06:17;;;;;;;15.70;2.80;;;5.50;99.90;;;;;;5038975;28;20238;-84
2024/02/07 10:08:50;;;;;;;19.87;3.87;;;5.50;99.90;;;;;;5016806;28;20183;-87
2024/02/07 10:11:16;;;;;;;17.57;3.40;;;5.50;99.90;;;;;;5038846;28;20246;-86
2024/02/07 10:13:42;;;;;;;17.07;3.17;;;5.50;99.90;;;;;;5044809;28;20218;-86
2024/02/07 10:16:09;;;;;;;13.13;2.50;;;5.50;99.90;;;;;;5035273;28;20202;-86
2024/02/07 10:18:34;;;;;;;17.90;2.60;;;5.50;99.90;;;;;;5018408;28;20183;-84
2024/02/07 10:21:02;;;;;;;15.57;2.57;;;5.60;99.90;;;;;;5022014;28;20195;-85
2024/02/07 10:23:28;;;;;;;15.33;2.47;;;5.50;99.90;;;;;;5030809;28;20179;-86
2024/02/07 10:25:55;;;;;;;18.70;2.73;;;5.60;99.90;;;;;;5030838;28;20235;-86
2024/02/07 10:28:24;;;;;;;21.70;2.97;;;5.60;99.90;;;;;;5030492;28;20195;-86
2024/02/07 10:31:01;;;;;;;15.77;2.63;;;5.60;99.90;;;;;;5009442;28;20190;-86
2024/02/07 10:33:40;;;;;;;12.57;2.70;;;5.60;99.90;;;;;;5003585;28;20619;-85
2024/02/07 10:36:07;;;;;;;11.43;1.80;;;5.70;99.90;;;;;;4998761;28;20191;-86
2024/02/07 10:38:33;;;;;;;19.70;2.60;;;5.70;99.90;;;;;;5005908;28;20192;-85
2024/02/07 10:41:00;;;;;;;16.30;2.60;;;5.70;99.90;;;;;;5013641;28;20222;-84
2024/02/07 10:43:28;;;;;;;13.07;3.00;;;5.80;99.90;;;;;;5029688;28;20613;-85
2024/02/07 10:46:04;;;;;;;11.43;2.20;;;5.80;99.90;;;;;;5012170;28;20229;-86
2024/02/07 10:48:30;;;;;;;15.83;2.50;;;5.90;99.90;;;;;;5013674;28;20186;-85
2024/02/07 10:50:57;;;;;;;12.53;2.27;;;5.90;99.90;;;;;;5012891;28;20664;-85
2024/02/07 10:53:26;;;;;;;21.23;3.50;;;5.90;99.90;;;;;;5013183;28;20632;-84
2024/02/07 10:55:56;;;;;;;17.10;3.17;;;5.80;99.90;;;;;;5010626;28;20226;-84
2024/02/07 10:58:24;;;;;;;15.13;3.33;;;5.90;99.90;;;;;;5008448;28;20524;-84
2024/02/07 11:00:52;;;;;;;16.43;2.90;;;5.80;99.90;;;;;;5009570;28;20301;-84
2024/02/07 11:03:20;;;;;;;17.23;3.27;;;5.90;99.90;;;;;;5023934;28;20654;-84
2024/02/07 11:05:46;;;;;;;15.30;3.03;;;5.90;99.90;;;;;;5006248;28;20608;-84
2024/02/07 11:08:13;;;;;;;13.30;2.27;;;5.90;99.90;;;;;;5011342;28;20198;-84
2024/02/07 11:10:40;;;;;;;9.93;1.70;;;5.80;99.90;;;;;;5010565;28;20190;-84
2024/02/07 11:13:11;;;;;;;12.67;2.73;;;5.80;99.90;;;;;;5012823;28;20198;-84
2024/02/07 11:15:40;;;;;;;14.63;2.63;;;5.70;99.90;;;;;;5009852;28;20615;-84
2024/02/07 11:18:08;;;;;;;18.30;2.47;;;5.70;99.90;;;;;;5016918;28;20187;-85
2024/02/07 11:20:34;;;;;;;15.07;2.50;;;5.70;99.90;;;;;;5029320;28;20604;-84
2024/02/07 11:23:23;;;;;;;18.80;2.60;;;5.70;99.90;;;;;;5014356;28;20186;-85
2024/02/07 11:25:49;;;;;;;14.33;2.43;;;5.70;99.90;;;;;;5011784;28;20230;-85
2024/02/07 11:28:15;;;;;;;21.60;3.27;;;5.70;99.90;;;;;;5012953;28;20198;-86
2024/02/07 11:30:42;;;;;;;13.93;2.40;;;5.70;99.90;;;;;;5012600;28;20187;-85
2024/02/07 11:33:09;;;;;;;13.63;3.20;;;5.80;99.90;;;;;;5012859;28;20233;-86
2024/02/07 11:35:36;;;;;;;18.77;3.47;;;5.80;99.90;;;;;;5014093;28;20218;-85
2024/02/07 11:38:02;;;;;;;13.47;2.70;;;5.80;99.90;;;;;;5013493;28;20183;-84
2024/02/07 11:40:39;;;;;;;12.73;2.90;;;5.80;99.90;;;;;;5000573;28;20199;-85
2024/02/07 11:43:09;;;;;;;11.87;2.47;;;5.80;99.90;;;;;;5014795;28;20186;-84
2024/02/07 11:45:38;;;;;;;14.37;3.10;;;5.80;99.90;;;;;;5012328;28;20270;-84
2024/02/07 11:48:17;;;;;;;17.40;2.37;;;5.80;99.90;;;;;;5001692;28;20183;-85
2024/02/07 11:50:43;;;;;;;16.67;2.67;;;5.80;99.90;;;;;;5026947;28;20219;-85
2024/02/07 11:53:18;;;;;;;17.97;2.60;;;5.80;99.90;;;;;;5012791;28;20230;-84
2024/02/07 11:55:47;;;;;;;16.83;2.80;;;5.80;99.90;;;;;;5012500;28;20222;-85
2024/02/07 11:58:16;;;;;;;17.97;3.07;;;5.70;99.90;;;;;;5014009;28;20171;-85
2024/02/07 12:00:42;;;;;;;18.53;2.83;;;5.80;99.90;;;;;;5013648;28;20262;-84
2024/02/07 12:03:15;;;;;;;12.83;1.80;;;5.90;99.90;;;;;;5023502;28;20270;-84
2024/02/07 12:05:45;;;;;;;16.53;2.57;;;5.90;99.90;;;;;;5011326;28;20186;-85
2024/02/07 12:08:13;;;;;;;9.27;2.30;;;6.00;99.90;;;;;;5008503;28;20183;-85
2024/02/07 12:10:39;;;;;;;13.67;2.70;;;6.00;99.90;;;;;;5015064;28;20180;-85
2024/02/07 12:13:05;;;;;;;18.43;2.87;;;6.00;99.90;;;;;;5032747;28;20198;-85
2024/02/07 12:15:31;;;;;;;8.97;2.13;;;6.10;99.90;;;;;;5016173;28;20215;-84
2024/02/07 12:17:58;;;;;;;9.93;2.40;;;6.10;99.90;;;;;;5016137;28;20642;-85
2024/02/07 12:20:29;;;;;;;19.00;2.13;;;6.10;99.90;;;;;;5010902;28;20207;-85
2024/02/07 12:23:01;;;;;;;13.77;2.47;;;6.10;99.90;;;;;;5015832;28;20183;-86
2024/02/07 12:25:28;;;;;;;9.20;1.80;;;6.10;99.90;;;;;;5016261;28;20231;-86
2024/02/07 12:27:53;;;;;;;11.53;1.90;;;6.00;99.90;;;;;;5012993;28;20196;-86
2024/02/07 12:30:20;;;;;;;9.40;1.97;;;6.00;99.90;;;;;;5010756;28;20293;-85
2024/02/07 12:32:45;;;;;;;9.87;1.83;;;6.00;99.90;;;;;;5015896;28;20183;-85
2024/02/07 12:35:12;;;;;;;11.53;2.20;;;6.00;99.90;;;;;;5016101;28;20211;-85
2024/02/07 12:37:39;;;;;;;9.43;2.17;;;6.10;99.90;;;;;;5032703;28;20187;-86
2024/02/07 12:40:13;;;;;;;13.27;2.10;;;6.10;99.90;;;;;;5027402;28;20649;-86
2024/02/07 12:42:39;;;;;;;9.80;1.90;;;6.20;99.90;;;;;;5017322;28;20186;-86
2024/02/07 12:45:08;;;;;;;9.17;1.80;;;6.20;99.90;;;;;;5015758;28;20189;-86
2024/02/07 12:47:34;;;;;;;12.60;2.10;;;6.10;99.90;;;;;;5016123;28;20278;-86
2024/02/07 12:50:00;;;;;;;7.27;1.83;;;6.20;99.90;;;;;;5032467;28;20270;-86
2024/02/07 12:52:26;;;;;;;12.17;2.03;;;6.10;99.90;;;;;;5032356;28;20200;-86
2024/02/07 12:54:52;;;;;;;10.40;1.77;;;6.20;99.90;;;;;;5015604;28;20207;-85
2024/02/07 12:57:22;;;;;;;16.00;2.30;;;6.30;99.90;;;;;;5032368;28;20513;-87
2024/02/07 12:59:48;;;;;;;10.50;1.90;;;6.40;99.90;;;;;;5015386;28;20195;-85
2024/02/07 13:02:14;;;;;;;10.07;2.17;;;6.40;99.90;;;;;;5015415;28;20198;-84
2024/02/07 13:04:47;;;;;;;8.53;1.60;;;6.40;99.90;;;;;;5015492;28;20187;-87
2024/02/07 13:07:15;;;;;;;6.70;1.50;;;6.30;99.90;;;;;;5017045;28;20179;-88
2024/02/07 13:09:41;;;;;;;11.77;2.10;;;6.20;99.90;;;;;;5023380;28;20187;-88
2024/02/07 13:12:08;;;;;;;5.97;1.67;;;6.30;99.90;;;;;;5004816;28;20190;-89
2024/02/07 13:14:38;;;;;;;10.17;1.80;;;6.20;99.90;;;;;;5005328;28;20207;-87
2024/02/07 13:17:04;;;;;;;14.03;1.90;;;6.10;99.90;;;;;;5037934;28;20203;-89
2024/02/07 13:19:30;;;;;;;11.43;1.83;;;6.00;99.90;;;;;;5036771;28;20183;-88
2024/02/07 13:22:01;;;;;;;18.03;2.77;;;5.90;99.90;;;;;;5013121;28;20215;-88
2024/02/07 13:24:27;;;;;;;4.90;1.40;;;5.90;99.90;;;;;;5029334;28;20194;-89
2024/02/07 13:26:53;;;;;;;10.77;2.23;;;5.90;99.90;;;;;;5048151;28;20231;-88
2024/02/07 13:29:20;;;;;;;9.90;1.57;;;5.90;99.90;;;;;;5016975;28;20202;-89
2024/02/07 13:31:46;;;;;;;9.10;1.73;;;5.90;99.90;;;;;;5015922;28;20194;-89
2024/02/07 13:34:13;;;;;;;7.63;1.63;;;5.90;99.90;;;;;;5015458;28;20207;-89
2024/02/07 13:36:39;;;;;;;16.33;2.10;;;5.90;99.90;;;;;;5006377;28;20322;-89
2024/02/07 13:39:06;;;;;;;9.77;1.80;;;5.80;99.90;;;;;;5007713;28;20274;-88
2024/02/07 13:41:32;;;;;;;7.53;1.93;;;5.80;99.90;;;;;;5008158;28;20218;-89
2024/02/07 13:44:07;;;;;;;7.93;1.50;;;5.90;99.90;;;;;;5028975;28;20188;-90
2024/02/07 13:46:33;;;;;;;10.47;1.97;;;6.00;99.90;;;;;;5005110;28;20178;-88
2024/02/07 13:49:02;;;;;;;5.27;1.50;;;6.20;99.90;;;;;;5013289;28;20180;-89
2024/02/07 13:51:27;;;;;;;12.57;1.93;;;6.30;99.90;;;;;;5008222;28;20191;-88
2024/02/07 13:53:53;;;;;;;14.00;2.00;;;6.40;99.90;;;;;;5004924;28;20190;-89
2024/02/07 13:56:20;;;;;;;6.53;1.30;;;6.30;99.90;;;;;;5034925;28;20219;-89
2024/02/07 13:58:46;;;;;;;11.67;2.63;;;6.20;99.90;;;;;;5015352;28;20187;-89
2024/02/07 14:01:11;;;;;;;11.17;2.00;;;6.20;99.90;;;;;;5007190;28;20241;-89
2024/02/07 14:03:41;;;;;;;9.33;1.60;;;6.10;99.90;;;;;;5007236;28;20270;-89